Sun Venus — 3ECG6 — position and weather

sailwx.info

Track history (hours):
 
Tides and Currents Weather Stations Pressure Air Temp Water Temp Dewpoint Dewpoint Depression Visibility Wind Speed Wind Dir Waves Ship Positions

Sun Venus

Last reported at 2018-Jul-16 02:17 UTC. Time now 2018-Jul-21 23:01 UTC.
Position N 35°01' E 129°21'.

Length 107 m; draft 5.5 m.

Type: Ship (hazmat cat C). MMSI: 356248000.

Date/timePositionNaut miles runAvg speedWind from/ knotsBaromVisibWave heightAir tempDewpointWater temp
2018-Jul-16 02:17N 35°01' E 129°21'42713.7
2018-Jul-14 19:10N 31°01' E 122°19'316.8
2018-Jul-14 18:58N 31°02' E 122°15'612.9
2018-Jul-14 18:30N 31°03' E 122°09'713.5
2018-Jul-14 18:00N 31°05' E 122°01'4 7.4
2018-Jul-14 17:29N 31°07' E 121°57'710.8
2018-Jul-14 16:51N 31°11' E 121°50'3 9.9
2018-Jul-14 16:30N 31°13' E 121°48'7910.6
2018-Jul-14 09:04N 32°01' E 120°34'213.3
2018-Jul-14 08:55N 32°01' E 120°32'410.0
2018-Jul-14 08:29N 32°01' E 120°27'3 5.1
2018-Jul-14 07:58N 31°58' E 120°27'0 0.0
2018-Jul-14 07:28N 31°58' E 120°27'0 0.0
2018-Jul-14 06:58N 31°58' E 120°27'0 0.0
2018-Jul-14 06:28N 31°58' E 120°27'0 0.0
2018-Jul-14 05:52N 31°58' E 120°27'0 0.0
2018-Jul-14 05:28N 31°58' E 120°27'0 0.0
2018-Jul-14 04:58N 31°58' E 120°27'0 0.0
2018-Jul-14 04:28N 31°58' E 120°27'0 0.0
2018-Jul-14 03:58N 31°58' E 120°27'0 0.0
2018-Jul-14 03:28N 31°58' E 120°27'0 0.0
2018-Jul-14 02:58N 31°58' E 120°27'0 0.0
2018-Jul-14 02:28N 31°58' E 120°27'0 0.0
2018-Jul-14 01:52N 31°58' E 120°27'0 0.0
2018-Jul-14 01:28N 31°58' E 120°27'0 0.0
2018-Jul-14 00:58N 31°58' E 120°27'0 0.0
2018-Jul-14 00:28N 31°58' E 120°27'0 0.0
2018-Jul-13 23:58N 31°58' E 120°27'0 0.0
2018-Jul-13 23:28N 31°58' E 120°27'0 0.0
2018-Jul-13 22:58N 31°58' E 120°27'0 0.0
2018-Jul-13 22:28N 31°58' E 120°27'0 0.0
2018-Jul-13 21:58N 31°58' E 120°27'0 0.0
2018-Jul-13 21:28N 31°58' E 120°27'0 0.0
2018-Jul-13 20:58N 31°58' E 120°27'0 0.0
2018-Jul-13 20:28N 31°58' E 120°27'0 0.0
2018-Jul-13 19:58N 31°58' E 120°27'0 0.0
2018-Jul-13 19:28N 31°58' E 120°27'0 0.0
2018-Jul-13 18:58N 31°58' E 120°27'0 0.0
2018-Jul-13 18:28N 31°58' E 120°27'0 0.0
2018-Jul-13 17:58N 31°58' E 120°27'0 0.0
2018-Jul-13 17:28N 31°58' E 120°27'0 0.0
2018-Jul-13 16:58N 31°58' E 120°27'0 0.0
2018-Jul-13 16:28N 31°58' E 120°27'0 0.0
2018-Jul-13 15:58N 31°58' E 120°27'0 0.0
2018-Jul-13 15:28N 31°58' E 120°27'0 0.0
2018-Jul-13 14:58N 31°58' E 120°27'0 0.0
2018-Jul-13 13:58N 31°58' E 120°27'0 0.0
2018-Jul-13 13:28N 31°58' E 120°27'0 0.0
2018-Jul-13 12:58N 31°58' E 120°27'0 0.0
2018-Jul-13 12:28N 31°58' E 120°27'0 0.0
2018-Jul-13 11:58N 31°58' E 120°27'0 0.0
2018-Jul-13 11:28N 31°58' E 120°27'0 0.0
2018-Jul-13 11:00N 31°58' E 120°27'2 3.0
2018-Jul-13 10:30N 31°60' E 120°27'3 5.5
2018-Jul-13 10:00N 32°02' E 120°29'8911.0
2018-Jul-13 01:55N 31°09' E 121°53'513.0
2018-Jul-13 01:30N 31°06' E 121°58'611.8
2018-Jul-13 01:00N 31°04' E 122°05'612.4
2018-Jul-13 00:30N 31°03' E 122°12'5 9.8
2018-Jul-13 00:00N 31°03' E 122°18'611.1
2018-Jul-12 23:27N 31°01' E 122°25'  
Track history (hours):
 
Tides and Currents Weather Stations Pressure Air Temp Water Temp Dewpoint Dewpoint Depression Visibility Wind Speed Wind Dir Waves Ship Positions

Sun Venus

Last reported at 2018-Jul-16 02:17 UTC. Time now 2018-Jul-21 23:01 UTC.
Position N 35°01' E 129°21'.

Length 107 m; draft 5.5 m.

Type: Ship (hazmat cat C). MMSI: 356248000.

Date/timePositionNaut miles runAvg speedWind from/ knotsBaromVisibWave heightAir tempDewpointWater temp
2018-Jul-16 02:17N 35°01' E 129°21'42713.7
2018-Jul-14 19:10N 31°01' E 122°19'316.8
2018-Jul-14 18:58N 31°02' E 122°15'612.9
2018-Jul-14 18:30N 31°03' E 122°09'713.5
2018-Jul-14 18:00N 31°05' E 122°01'4 7.4
2018-Jul-14 17:29N 31°07' E 121°57'710.8
2018-Jul-14 16:51N 31°11' E 121°50'3 9.9
2018-Jul-14 16:30N 31°13' E 121°48'7910.6
2018-Jul-14 09:04N 32°01' E 120°34'213.3
2018-Jul-14 08:55N 32°01' E 120°32'410.0
2018-Jul-14 08:29N 32°01' E 120°27'3 5.1
2018-Jul-14 07:58N 31°58' E 120°27'0 0.0
2018-Jul-14 07:28N 31°58' E 120°27'0 0.0
2018-Jul-14 06:58N 31°58' E 120°27'0 0.0
2018-Jul-14 06:28N 31°58' E 120°27'0 0.0
2018-Jul-14 05:52N 31°58' E 120°27'0 0.0
2018-Jul-14 05:28N 31°58' E 120°27'0 0.0
2018-Jul-14 04:58N 31°58' E 120°27'0 0.0
2018-Jul-14 04:28N 31°58' E 120°27'0 0.0
2018-Jul-14 03:58N 31°58' E 120°27'0 0.0
2018-Jul-14 03:28N 31°58' E 120°27'0 0.0
2018-Jul-14 02:58N 31°58' E 120°27'0 0.0
2018-Jul-14 02:28N 31°58' E 120°27'0 0.0
2018-Jul-14 01:52N 31°58' E 120°27'0 0.0
2018-Jul-14 01:28N 31°58' E 120°27'0 0.0
2018-Jul-14 00:58N 31°58' E 120°27'0 0.0
2018-Jul-14 00:28N 31°58' E 120°27'0 0.0
2018-Jul-13 23:58N 31°58' E 120°27'0 0.0
2018-Jul-13 23:28N 31°58' E 120°27'0 0.0
2018-Jul-13 22:58N 31°58' E 120°27'0 0.0
2018-Jul-13 22:28N 31°58' E 120°27'0 0.0
2018-Jul-13 21:58N 31°58' E 120°27'0 0.0
2018-Jul-13 21:28N 31°58' E 120°27'0 0.0
2018-Jul-13 20:58N 31°58' E 120°27'0 0.0
2018-Jul-13 20:28N 31°58' E 120°27'0 0.0
2018-Jul-13 19:58N 31°58' E 120°27'0 0.0
2018-Jul-13 19:28N 31°58' E 120°27'0 0.0
2018-Jul-13 18:58N 31°58' E 120°27'0 0.0
2018-Jul-13 18:28N 31°58' E 120°27'0 0.0
2018-Jul-13 17:58N 31°58' E 120°27'0 0.0
2018-Jul-13 17:28N 31°58' E 120°27'0 0.0
2018-Jul-13 16:58N 31°58' E 120°27'0 0.0
2018-Jul-13 16:28N 31°58' E 120°27'0 0.0
2018-Jul-13 15:58N 31°58' E 120°27'0 0.0
2018-Jul-13 15:28N 31°58' E 120°27'0 0.0
2018-Jul-13 14:58N 31°58' E 120°27'0 0.0
2018-Jul-13 13:58N 31°58' E 120°27'0 0.0
2018-Jul-13 13:28N 31°58' E 120°27'0 0.0
2018-Jul-13 12:58N 31°58' E 120°27'0 0.0
2018-Jul-13 12:28N 31°58' E 120°27'0 0.0
2018-Jul-13 11:58N 31°58' E 120°27'0 0.0
2018-Jul-13 11:28N 31°58' E 120°27'0 0.0
2018-Jul-13 11:00N 31°58' E 120°27'2 3.0
2018-Jul-13 10:30N 31°60' E 120°27'3 5.5
2018-Jul-13 10:00N 32°02' E 120°29'8911.0
2018-Jul-13 01:55N 31°09' E 121°53'513.0
2018-Jul-13 01:30N 31°06' E 121°58'611.8
2018-Jul-13 01:00N 31°04' E 122°05'612.4
2018-Jul-13 00:30N 31°03' E 122°12'5 9.8
2018-Jul-13 00:00N 31°03' E 122°18'611.1
2018-Jul-12 23:27N 31°01' E 122°25'  

Dump ship's entire track history